createdAt,value
2022-11-24T00:02:29.167Z,15.25
2022-11-24T00:05:30.938Z,16.35
2022-11-24T00:08:32.569Z,14.57
2022-11-24T00:11:36.122Z,14.40
2022-11-24T00:14:37.797Z,20.75
2022-11-24T00:17:39.469Z,15.85
2022-11-24T00:20:41.075Z,14.95
2022-11-24T00:23:45.889Z,17.45
2022-11-24T00:26:47.525Z,16.23
2022-11-24T00:29:49.149Z,15.32
2022-11-24T00:32:52.747Z,16.12
2022-11-24T00:35:56.261Z,17.65
2022-11-24T00:39:00.217Z,16.27
2022-11-24T00:42:02.111Z,21.85
2022-11-24T00:45:13.205Z,16.92
2022-11-24T00:48:15.074Z,19.30
2022-11-24T00:51:18.183Z,18.95
2022-11-24T00:54:19.835Z,19.58
2022-11-24T00:57:21.403Z,16.95
2022-11-24T01:00:23.111Z,17.45
2022-11-24T01:03:24.716Z,19.77
2022-11-24T01:06:27.040Z,18.60
2022-11-24T01:09:28.697Z,18.75
2022-11-24T01:12:30.301Z,19.45
2022-11-24T01:15:31.965Z,19.40
2022-11-24T01:18:33.577Z,18.17
2022-11-24T01:21:35.200Z,21.42
2022-11-24T01:24:36.814Z,19.77
2022-11-24T01:27:38.705Z,21.60
2022-11-24T01:30:40.356Z,21.15
2022-11-24T01:33:41.955Z,22.73
2022-11-24T01:36:43.663Z,20.77
2022-11-24T01:39:45.274Z,24.52
2022-11-24T01:42:50.697Z,21.50
2022-11-24T01:45:52.453Z,25.75
2022-11-24T01:49:13.178Z,22.05
2022-11-24T01:52:21.933Z,19.23
2022-11-24T01:55:31.045Z,21.90
2022-11-24T01:58:34.622Z,22.05
2022-11-24T02:01:36.390Z,18.80
2022-11-24T02:04:38.818Z,17.02
2022-11-24T02:07:40.628Z,18.45
2022-11-24T02:10:44.126Z,16.65
2022-11-24T02:13:47.893Z,16.10
2022-11-24T02:16:50.999Z,15.32
2022-11-24T02:19:58.572Z,18.85
2022-11-24T02:26:35.844Z,14.48
2022-11-24T02:29:38.265Z,12.35
2022-11-24T02:32:42.170Z,13.07
2022-11-24T02:35:43.796Z,17.30
2022-11-24T02:38:45.379Z,12.80
2022-11-24T02:41:52.157Z,12.43
2022-11-24T02:44:58.491Z,14.50
2022-11-24T02:48:00.210Z,14.13
2022-11-24T02:51:01.799Z,15.93
2022-11-24T02:54:03.455Z,15.57
2022-11-24T02:57:05.080Z,14.80
2022-11-24T03:00:07.342Z,16.25
2022-11-24T03:03:09.180Z,16.50
2022-11-24T03:06:10.840Z,19.98
2022-11-24T03:09:12.544Z,16.65
2022-11-24T03:12:16.644Z,16.23
2022-11-24T03:15:18.589Z,17.08
2022-11-24T03:18:20.354Z,18.60
2022-11-24T03:21:21.973Z,15.38
2022-11-24T03:24:23.561Z,16.77
2022-11-24T03:27:25.216Z,19.42
2022-11-24T03:30:27.044Z,19.75
2022-11-24T03:33:28.845Z,21.40
2022-11-24T03:36:30.513Z,21.27
2022-11-24T03:39:32.155Z,18.55
2022-11-24T03:42:33.843Z,23.58
2022-11-24T03:45:45.948Z,25.25
2022-11-24T03:48:47.858Z,29.17
2022-11-24T03:51:50.237Z,25.33
2022-11-24T03:54:52.530Z,21.23
2022-11-24T03:57:54.128Z,19.70
2022-11-24T04:00:56.620Z,20.90
2022-11-24T04:03:58.203Z,21.62
2022-11-24T04:06:59.811Z,20.67
2022-11-24T04:10:01.676Z,18.60
2022-11-24T04:13:04.888Z,19.98
2022-11-24T04:16:06.827Z,18.67
2022-11-24T04:19:08.484Z,18.15
2022-11-24T04:22:10.079Z,17.62
2022-11-24T04:25:12.153Z,21.10
2022-11-24T04:28:13.736Z,20.25
2022-11-24T04:31:15.376Z,20.10
2022-11-24T04:34:17.049Z,24.08
2022-11-24T04:37:18.801Z,29.73
2022-11-24T04:40:20.563Z,23.55
2022-11-24T04:43:22.254Z,26.25
2022-11-24T04:46:23.878Z,23.58
2022-11-24T04:49:25.519Z,29.90
2022-11-24T04:52:27.232Z,22.67
2022-11-24T04:55:28.845Z,20.73
2022-11-24T04:58:30.556Z,50.80
2022-11-24T05:01:32.841Z,79.03
2022-11-24T05:04:34.760Z,73.05
2022-11-24T05:07:36.702Z,55.47
2022-11-24T05:10:38.539Z,33.00
2022-11-24T05:13:40.318Z,20.73
2022-11-24T05:16:41.981Z,19.52
2022-11-24T05:19:43.596Z,20.45
2022-11-24T05:22:45.287Z,18.50
2022-11-24T05:25:47.900Z,22.37
2022-11-24T05:28:49.731Z,19.42
2022-11-24T05:31:51.433Z,24.17
2022-11-24T05:34:54.181Z,23.33
2022-11-24T05:37:55.737Z,26.92
2022-11-24T05:41:05.416Z,21.17
2022-11-24T05:44:07.010Z,19.10
2022-11-24T05:47:08.632Z,17.65
2022-11-24T05:50:12.243Z,17.55
2022-11-24T05:53:14.019Z,17.92
2022-11-24T05:56:15.628Z,16.77
2022-11-24T05:59:17.171Z,17.65
2022-11-24T06:02:19.321Z,18.95
2022-11-24T06:05:21.087Z,19.30
2022-11-24T06:08:25.590Z,19.62
2022-11-24T06:11:31.200Z,19.95
2022-11-24T06:14:33.492Z,17.23
2022-11-24T06:17:35.287Z,16.30
2022-11-24T06:20:36.894Z,17.50
2022-11-24T06:23:38.871Z,21.58
2022-11-24T06:26:40.909Z,21.85
2022-11-24T06:29:42.848Z,28.48
2022-11-24T06:32:49.304Z,21.05
2022-11-24T06:35:51.362Z,19.77
2022-11-24T06:38:53.499Z,21.90
2022-11-24T06:41:55.156Z,27.67
2022-11-24T06:44:56.694Z,40.78
2022-11-24T06:47:58.270Z,34.67
2022-11-24T06:51:01.366Z,35.75
2022-11-24T06:54:07.148Z,37.50
2022-11-24T06:57:08.785Z,39.55
2022-11-24T07:00:11.198Z,44.78
2022-11-24T07:03:16.444Z,37.88
2022-11-24T07:06:19.389Z,44.50
2022-11-24T07:09:20.943Z,43.53
2022-11-24T07:12:24.264Z,46.95
2022-11-24T07:15:26.596Z,48.80
2022-11-24T07:18:28.158Z,47.20
2022-11-24T07:21:30.866Z,46.05
2022-11-24T07:24:32.848Z,48.10
2022-11-24T07:27:34.603Z,48.33
2022-11-24T07:30:36.159Z,58.50
2022-11-24T07:33:37.808Z,56.37
2022-11-24T07:36:39.439Z,52.90
2022-11-24T07:39:41.019Z,50.05
2022-11-24T07:42:42.580Z,52.22
2022-11-24T07:45:44.252Z,45.15
2022-11-24T07:48:46.651Z,53.35
2022-11-24T07:51:48.780Z,51.08
2022-11-24T07:54:50.337Z,49.92
2022-11-24T07:57:51.886Z,63.70
2022-11-24T08:00:53.421Z,53.20
2022-11-24T08:03:55.113Z,52.13
2022-11-24T08:06:56.695Z,54.05
2022-11-24T08:09:58.231Z,45.72
2022-11-24T08:13:03.463Z,49.30
2022-11-24T08:16:07.526Z,50.90
2022-11-24T08:19:10.957Z,62.80
2022-11-24T08:22:12.577Z,51.90
2022-11-24T08:25:15.343Z,49.42
2022-11-24T08:28:16.971Z,55.08
2022-11-24T08:31:19.139Z,53.10
2022-11-24T08:34:20.838Z,58.83
2022-11-24T08:37:22.406Z,57.30
2022-11-24T08:40:24.050Z,59.92
2022-11-24T08:43:25.672Z,57.28
2022-11-24T08:46:27.537Z,57.05
2022-11-24T08:49:29.560Z,54.45
2022-11-24T08:52:31.211Z,64.03
2022-11-24T08:55:32.749Z,65.40
2022-11-24T08:58:35.291Z,64.47
2022-11-24T09:01:38.104Z,69.28
2022-11-24T09:04:39.757Z,66.25
2022-11-24T09:07:41.806Z,72.35
2022-11-24T09:10:44.028Z,65.78
2022-11-24T09:13:46.358Z,68.10
2022-11-24T09:16:48.034Z,63.40
2022-11-24T09:19:49.609Z,66.47
2022-11-24T09:22:51.222Z,69.28
2022-11-24T09:25:52.798Z,74.70
2022-11-24T09:28:55.947Z,64.93
2022-11-24T09:32:02.033Z,76.75
2022-11-24T09:35:07.391Z,82.43
2022-11-24T09:38:09.975Z,67.45
2022-11-24T09:41:17.670Z,59.22
2022-11-24T09:44:28.399Z,71.37
2022-11-24T09:47:32.918Z,58.47
2022-11-24T09:50:37.445Z,59.60
2022-11-24T09:53:57.570Z,59.78
2022-11-24T09:57:01.542Z,59.05
2022-11-24T10:00:17.613Z,57.03
2022-11-24T10:03:39.670Z,58.15
2022-11-24T10:07:06.371Z,57.80
2022-11-24T10:10:29.475Z,57.58
2022-11-24T10:13:34.035Z,60.95
2022-11-24T10:16:45.339Z,54.92
2022-11-24T10:20:09.098Z,50.40
2022-11-24T10:23:22.760Z,52.58
2022-11-24T10:26:39.290Z,47.83
2022-11-24T10:29:42.092Z,56.37
2022-11-24T10:32:56.504Z,50.75
2022-11-24T10:36:06.538Z,49.35
2022-11-24T10:39:41.867Z,54.70
2022-11-24T10:42:43.581Z,51.55
2022-11-24T10:45:45.776Z,50.10
2022-11-24T10:48:51.793Z,54.58
2022-11-24T10:52:11.777Z,57.35
2022-11-24T10:55:13.600Z,52.40
2022-11-24T10:58:16.902Z,53.50
2022-11-24T11:01:21.741Z,77.85
2022-11-24T11:04:28.377Z,53.03
2022-11-24T11:07:30.118Z,49.95
2022-11-24T11:10:31.863Z,51.20
2022-11-24T11:13:33.425Z,50.85
2022-11-24T11:16:42.425Z,48.45
2022-11-24T11:19:49.479Z,49.72
2022-11-24T11:22:58.585Z,47.17
2022-11-24T11:26:20.211Z,52.03
2022-11-24T11:36:17.200Z,42.53
2022-11-24T11:39:45.405Z,42.72
2022-11-24T11:43:03.410Z,34.42
2022-11-24T11:46:11.972Z,32.55
2022-11-24T11:49:14.309Z,31.08
2022-11-24T11:55:54.696Z,35.17
2022-11-24T11:59:31.948Z,31.85
2022-11-24T12:03:24.349Z,32.10
2022-11-24T12:06:57.017Z,31.02
2022-11-24T12:10:36.190Z,32.58
2022-11-24T12:14:15.365Z,32.35
2022-11-24T12:17:29.655Z,39.15
2022-11-24T12:20:37.078Z,34.95
2022-11-24T12:23:51.354Z,37.67
2022-11-24T12:27:04.116Z,44.63
2022-11-24T12:30:10.432Z,34.03
2022-11-24T12:33:28.381Z,39.60
2022-11-24T12:36:47.126Z,53.22
2022-11-24T12:40:07.163Z,44.72
2022-11-24T12:43:36.872Z,49.53
2022-11-24T12:46:46.421Z,54.42
2022-11-24T12:50:12.741Z,45.67
2022-11-24T12:53:23.735Z,46.08
2022-11-24T12:56:38.247Z,47.85
2022-11-24T13:00:00.858Z,53.00
2022-11-24T13:03:32.871Z,52.97
2022-11-24T13:06:50.499Z,53.30
2022-11-24T13:14:00.122Z,65.03
2022-11-24T13:20:31.366Z,45.80
2022-11-24T13:23:32.918Z,51.23
2022-11-24T13:26:43.267Z,52.05
2022-11-24T13:29:46.675Z,44.58
2022-11-24T13:33:21.662Z,46.15
2022-11-24T13:36:25.874Z,37.85
2022-11-24T13:39:50.489Z,38.55
2022-11-24T13:42:56.130Z,34.97
2022-11-24T13:45:57.883Z,35.15
2022-11-24T13:49:00.064Z,42.03
2022-11-24T13:52:39.558Z,35.85
2022-11-24T13:55:52.384Z,30.48
2022-11-24T13:58:57.822Z,33.30
2022-11-24T14:01:59.605Z,35.72
2022-11-24T14:05:01.261Z,34.67
2022-11-24T14:08:05.933Z,38.58
2022-11-24T14:11:16.546Z,42.13
2022-11-24T14:14:21.781Z,47.30
2022-11-24T14:17:25.540Z,36.50
2022-11-24T14:20:28.327Z,32.80
2022-11-24T14:23:31.432Z,36.15
2022-11-24T14:26:35.824Z,42.22
2022-11-24T14:29:37.409Z,33.55
2022-11-24T14:32:39.836Z,35.67
2022-11-24T14:35:46.948Z,35.63
2022-11-24T14:38:48.568Z,38.35
2022-11-24T14:41:55.579Z,38.75
2022-11-24T14:45:00.194Z,41.40
2022-11-24T14:48:01.812Z,34.22
2022-11-24T14:51:24.954Z,39.20
2022-11-24T14:54:27.030Z,35.25
2022-11-24T14:57:31.317Z,38.58
2022-11-24T15:00:33.400Z,45.78
2022-11-24T15:03:35.037Z,41.35
2022-11-24T15:06:36.783Z,54.50
2022-11-24T15:10:04.103Z,44.50
2022-11-24T15:13:17.021Z,35.45
2022-11-24T15:16:21.090Z,29.95
2022-11-24T15:19:26.867Z,35.65
2022-11-24T15:22:41.440Z,30.00
2022-11-24T15:25:43.015Z,34.58
2022-11-24T15:28:46.666Z,36.60
2022-11-24T15:31:52.686Z,31.30
2022-11-24T15:34:54.662Z,31.40
2022-11-24T15:37:56.345Z,31.17
2022-11-24T15:41:00.686Z,32.45
2022-11-24T15:44:02.294Z,26.08
2022-11-24T15:47:03.966Z,28.42
2022-11-24T15:50:06.181Z,30.92
2022-11-24T15:53:31.414Z,34.05
2022-11-24T15:56:37.734Z,29.00
2022-11-24T15:59:39.289Z,32.30
2022-11-24T16:02:40.951Z,35.40
2022-11-24T16:05:42.597Z,31.37
2022-11-24T16:08:44.196Z,29.90
2022-11-24T16:11:45.782Z,35.60
2022-11-24T16:14:47.382Z,37.10
2022-11-24T16:17:49.320Z,33.03
2022-11-24T16:20:50.961Z,27.92
2022-11-24T16:23:52.658Z,31.60
2022-11-24T16:26:54.796Z,48.03
2022-11-24T16:29:56.446Z,70.20
2022-11-24T16:32:58.034Z,62.80
2022-11-24T16:35:59.708Z,50.25
2022-11-24T16:39:01.319Z,34.95
2022-11-24T16:42:03.971Z,41.95
2022-11-24T16:45:06.130Z,29.37
2022-11-24T16:48:08.005Z,29.27
2022-11-24T16:51:10.362Z,27.62
2022-11-24T16:54:12.460Z,28.90
2022-11-24T16:57:15.703Z,30.50
2022-11-24T17:00:17.883Z,36.15
2022-11-24T17:03:20.018Z,31.90
2022-11-24T17:06:22.759Z,30.62
2022-11-24T17:09:24.846Z,31.87
2022-11-24T17:12:27.726Z,31.60
2022-11-24T17:15:36.555Z,29.77
2022-11-24T17:18:41.272Z,31.37
2022-11-24T17:21:43.177Z,31.25
2022-11-24T17:24:45.214Z,33.92
2022-11-24T17:27:47.245Z,36.65
2022-11-24T17:30:48.879Z,31.05
2022-11-24T17:33:52.677Z,30.50
2022-11-24T17:36:54.629Z,37.30
2022-11-24T17:40:26.303Z,29.02
2022-11-24T17:43:18.528Z,33.70
2022-11-24T17:46:20.645Z,39.60
2022-11-24T17:49:23.698Z,35.45
2022-11-24T17:52:25.999Z,34.83
2022-11-24T17:55:27.852Z,34.70
2022-11-24T17:58:31.357Z,33.78
2022-11-24T18:01:34.231Z,35.70
2022-11-24T18:04:36.262Z,34.92
2022-11-24T18:07:38.525Z,37.75
2022-11-24T18:10:40.924Z,32.00
2022-11-24T18:14:01.150Z,35.50
2022-11-24T18:17:03.796Z,44.60
2022-11-24T18:20:06.347Z,36.17
2022-11-24T18:23:08.260Z,39.42
2022-11-24T18:26:15.217Z,34.50
2022-11-24T18:29:17.286Z,72.75
2022-11-24T18:32:19.268Z,40.53
2022-11-24T18:35:20.926Z,42.78
2022-11-24T18:38:22.903Z,40.10
2022-11-24T18:41:29.876Z,35.72
2022-11-24T18:44:32.106Z,49.47
2022-11-24T18:47:34.376Z,40.00
2022-11-24T18:50:36.449Z,51.20
2022-11-24T18:53:38.536Z,43.55
2022-11-24T18:56:40.591Z,37.97
2022-11-24T18:59:42.684Z,35.78
2022-11-24T19:02:45.459Z,33.20
2022-11-24T19:05:47.656Z,37.47
2022-11-24T19:08:54.333Z,42.88
2022-11-24T19:11:56.379Z,43.45
2022-11-24T19:15:00.963Z,43.28
2022-11-24T19:18:21.666Z,44.70
2022-11-24T19:21:23.912Z,43.30
2022-11-24T19:24:26.081Z,45.33
2022-11-24T19:27:27.820Z,43.50
2022-11-24T19:30:29.994Z,39.65
2022-11-24T19:33:33.015Z,46.37
2022-11-24T19:36:35.189Z,41.25
2022-11-24T19:39:37.216Z,39.10
2022-11-24T19:42:43.123Z,44.27
2022-11-24T19:45:44.936Z,43.97
2022-11-24T19:48:54.660Z,43.97
2022-11-24T19:51:56.750Z,44.85
2022-11-24T19:55:00.283Z,37.80
2022-11-24T19:58:03.429Z,43.65
2022-11-24T20:01:11.671Z,37.58
2022-11-24T20:04:15.558Z,40.67
2022-11-24T20:07:19.463Z,39.10
2022-11-24T20:10:21.106Z,38.08
2022-11-24T20:13:23.018Z,40.67
2022-11-24T20:16:28.536Z,47.05
2022-11-24T20:19:31.729Z,52.05
2022-11-24T20:22:33.713Z,42.50
2022-11-24T20:25:39.961Z,43.53
2022-11-24T20:28:42.214Z,41.47
2022-11-24T20:31:48.724Z,43.97
2022-11-24T20:34:50.478Z,41.73
2022-11-24T20:41:14.541Z,42.10
2022-11-24T20:44:18.437Z,37.05
2022-11-24T20:47:19.979Z,44.03
2022-11-24T20:50:21.530Z,36.65
2022-11-24T20:53:24.314Z,41.08
2022-11-24T20:56:37.574Z,55.58
2022-11-24T20:59:39.701Z,61.30
2022-11-24T21:02:42.754Z,49.38
2022-11-24T21:05:44.760Z,57.03
2022-11-24T21:08:46.533Z,52.15
2022-11-24T21:11:49.073Z,51.25
2022-11-24T21:14:50.847Z,46.80
2022-11-24T21:17:52.467Z,53.53
2022-11-24T21:20:54.178Z,58.00
2022-11-24T21:23:55.733Z,55.85
2022-11-24T21:26:57.315Z,65.70
2022-11-24T21:30:00.261Z,42.10
2022-11-24T21:33:05.550Z,41.10
2022-11-24T21:36:07.404Z,46.53
2022-11-24T21:39:12.191Z,48.33
2022-11-24T21:42:13.820Z,44.58
2022-11-24T21:45:15.584Z,52.03
2022-11-24T21:48:17.114Z,54.15
2022-11-24T21:51:20.937Z,41.22
2022-11-24T21:54:22.791Z,46.75
2022-11-24T21:57:24.384Z,48.13
2022-11-24T22:00:26.007Z,43.95
2022-11-24T22:03:27.580Z,36.22
2022-11-24T22:06:29.163Z,46.67
2022-11-24T22:09:30.715Z,36.33
2022-11-24T22:12:32.289Z,39.85
2022-11-24T22:15:33.846Z,33.85
2022-11-24T22:18:37.864Z,38.78
2022-11-24T22:21:39.419Z,36.65
2022-11-24T22:24:41.288Z,45.50
2022-11-24T22:27:42.941Z,41.03
2022-11-24T22:30:44.491Z,41.53
2022-11-24T22:33:46.437Z,49.70
2022-11-24T22:36:48.229Z,41.80
2022-11-24T22:39:49.819Z,46.72
2022-11-24T22:42:51.380Z,45.92
2022-11-24T22:45:52.990Z,53.42
2022-11-24T22:48:57.540Z,42.45
2022-11-24T22:51:59.172Z,47.85
2022-11-24T22:55:00.746Z,43.83
2022-11-24T22:58:02.402Z,39.95
2022-11-24T23:01:17.837Z,35.60
2022-11-24T23:04:19.444Z,40.83
2022-11-24T23:07:21.077Z,39.17
2022-11-24T23:10:22.811Z,42.78
2022-11-24T23:13:24.374Z,43.30
2022-11-24T23:16:26.593Z,46.13
2022-11-24T23:19:28.315Z,41.53
2022-11-24T23:22:29.896Z,40.45
2022-11-24T23:25:33.761Z,45.25
2022-11-24T23:28:35.444Z,41.03
2022-11-24T23:31:39.854Z,40.65
2022-11-24T23:34:41.668Z,40.75
2022-11-24T23:38:06.524Z,40.70
2022-11-24T23:41:10.074Z,40.00
2022-11-24T23:44:11.812Z,39.33
2022-11-24T23:47:13.373Z,41.10
2022-11-24T23:50:15.076Z,38.15
2022-11-24T23:53:16.605Z,39.22
2022-11-24T23:56:23.698Z,36.40
2022-11-24T23:59:25.239Z,46.97
